createdAt,value
2019-05-20T00:04:17.694Z,17
2019-05-20T00:09:20.198Z,18
2019-05-20T00:14:22.597Z,18
2019-05-20T00:19:25.117Z,17
2019-05-20T00:24:27.625Z,17
2019-05-20T00:29:29.973Z,15
2019-05-20T00:34:34.868Z,16
2019-05-20T00:39:34.889Z,18
2019-05-20T00:44:37.351Z,16
2019-05-20T00:49:39.835Z,15
2019-05-20T00:54:42.269Z,19
2019-05-20T00:59:44.743Z,17
2019-05-20T01:04:47.213Z,18
2019-05-20T01:09:49.742Z,18
2019-05-20T01:14:52.101Z,16
2019-05-20T01:19:54.584Z,19
2019-05-20T01:24:57.157Z,16
2019-05-20T01:29:59.499Z,17
2019-05-20T01:35:02.057Z,15
2019-05-20T01:40:04.405Z,15
2019-05-20T01:45:06.839Z,16
2019-05-20T01:50:09.311Z,15
2019-05-20T01:55:11.807Z,17
2019-05-20T02:00:14.265Z,16
2019-05-20T02:05:16.682Z,17
2019-05-20T02:10:19.129Z,18
2019-05-20T02:15:21.623Z,19
2019-05-20T02:20:24.056Z,15
2019-05-20T02:25:26.526Z,16
2019-05-20T02:30:28.964Z,18
2019-05-20T02:35:31.443Z,15
2019-05-20T02:40:33.920Z,15
2019-05-20T02:45:36.370Z,20
2019-05-20T02:50:38.914Z,17
2019-05-20T02:55:41.289Z,18
2019-05-20T03:00:43.723Z,18
2019-05-20T03:05:46.192Z,20
2019-05-20T03:10:48.644Z,20
2019-05-20T03:15:51.115Z,19
2019-05-20T03:25:56.039Z,18
2019-05-20T03:30:58.452Z,20
2019-05-20T03:36:00.958Z,18
2019-05-20T03:41:03.385Z,18
2019-05-20T03:46:05.829Z,18
2019-05-20T03:51:08.279Z,21
2019-05-20T03:56:10.774Z,19
2019-05-20T04:01:13.190Z,20
2019-05-20T04:06:15.730Z,21
2019-05-20T04:11:18.127Z,19
2019-05-20T04:16:20.666Z,18
2019-05-20T04:21:23.214Z,17
2019-05-20T04:26:25.505Z,22
2019-05-20T04:31:27.959Z,21
2019-05-20T04:36:30.439Z,21
2019-05-20T04:41:35.543Z,17
2019-05-20T04:46:35.339Z,21
2019-05-20T04:51:37.799Z,20
2019-05-20T04:56:40.259Z,23
2019-05-20T05:01:42.874Z,19
2019-05-20T05:06:45.222Z,19
2019-05-20T05:11:47.605Z,19
2019-05-20T05:16:50.087Z,18
2019-05-20T05:21:52.516Z,20
2019-05-20T05:26:54.991Z,18
2019-05-20T05:31:57.450Z,18
2019-05-20T05:36:59.934Z,17
2019-05-20T05:42:02.382Z,18
2019-05-20T05:47:04.813Z,16
2019-05-20T05:52:07.275Z,18
2019-05-20T05:57:09.742Z,16
2019-05-20T06:02:12.326Z,17
2019-05-20T06:07:14.645Z,18
2019-05-20T06:12:17.194Z,16
2019-05-20T06:17:19.598Z,16
2019-05-20T06:22:22.006Z,19
2019-05-20T06:27:24.485Z,18
2019-05-20T06:37:29.511Z,14
2019-05-20T06:42:31.960Z,14
2019-05-20T06:47:34.408Z,16
2019-05-20T06:52:36.802Z,16
2019-05-20T06:57:39.339Z,16
2019-05-20T07:02:41.686Z,16
2019-05-20T07:07:44.186Z,15
2019-05-20T07:12:46.619Z,16
2019-05-20T07:17:49.096Z,16
2019-05-20T07:22:55.544Z,16
2019-05-20T07:27:54.058Z,16
2019-05-20T07:32:56.463Z,16
2019-05-20T07:37:58.929Z,17
2019-05-20T07:43:01.454Z,16
2019-05-20T07:48:03.865Z,15
2019-05-20T07:53:06.299Z,14
2019-05-20T07:58:08.776Z,15
2019-05-20T08:03:11.208Z,15
2019-05-20T08:08:13.697Z,16
2019-05-20T08:13:16.125Z,16
2019-05-20T08:18:20.202Z,15
2019-05-20T08:23:21.034Z,16
2019-05-20T08:28:23.518Z,17
2019-05-20T08:33:25.972Z,14
2019-05-20T08:38:28.409Z,19
2019-05-20T08:43:30.895Z,18
2019-05-20T08:48:33.344Z,17
2019-05-20T08:53:35.797Z,26
2019-05-20T08:58:38.284Z,22
2019-05-20T09:03:40.700Z,15
2019-05-20T09:08:43.240Z,34
2019-05-20T09:13:46.016Z,16
2019-05-20T09:18:48.135Z,15
2019-05-20T09:23:50.543Z,17
2019-05-20T09:28:53.125Z,17
2019-05-20T09:33:55.584Z,17
2019-05-20T09:38:58.043Z,22
2019-05-20T09:44:00.382Z,18
2019-05-20T09:49:02.859Z,19
2019-05-20T09:54:05.309Z,21
2019-05-20T09:59:07.804Z,19
2019-05-20T10:04:10.228Z,18
2019-05-20T10:09:12.668Z,18
2019-05-20T10:14:15.129Z,20
2019-05-20T10:19:17.576Z,17
2019-05-20T10:24:20.056Z,16
2019-05-20T10:29:22.531Z,17
2019-05-20T10:34:25.084Z,19
2019-05-20T10:39:27.430Z,18
2019-05-20T10:44:29.878Z,18
2019-05-20T10:49:32.366Z,19
2019-05-20T10:54:35.129Z,19
2019-05-20T10:59:37.260Z,21
2019-05-20T11:04:39.802Z,21
2019-05-20T11:09:42.243Z,22
2019-05-20T11:14:44.632Z,21
2019-05-20T11:19:47.101Z,22
2019-05-20T11:24:49.594Z,23
2019-05-20T11:29:52.060Z,22
2019-05-20T11:34:54.462Z,24
2019-05-20T11:39:56.934Z,22
2019-05-20T11:44:59.452Z,24
2019-05-20T11:50:02.156Z,26
2019-05-20T11:55:04.470Z,24
2019-05-20T12:00:06.951Z,25
2019-05-20T12:05:09.228Z,24
2019-05-20T12:10:11.694Z,23
2019-05-20T12:15:14.148Z,22
2019-05-20T12:20:16.609Z,26
2019-05-20T12:25:19.233Z,26
2019-05-20T12:30:21.648Z,28
2019-05-20T12:35:23.960Z,26
2019-05-20T12:40:26.441Z,26
2019-05-20T12:45:28.976Z,25
2019-05-20T12:50:31.342Z,27
2019-05-20T12:55:33.852Z,27
2019-05-20T13:00:36.262Z,27
2019-05-20T13:05:38.781Z,29
2019-05-20T13:10:41.256Z,26
2019-05-20T13:15:43.641Z,27
2019-05-20T13:20:46.096Z,25
2019-05-20T13:25:48.635Z,23
2019-05-20T13:30:51.032Z,26
2019-05-20T13:35:53.491Z,26
2019-05-20T13:40:55.921Z,26
2019-05-20T13:45:58.573Z,30
2019-05-20T13:51:00.847Z,25
2019-05-20T13:56:03.371Z,26
2019-05-20T14:01:05.763Z,27
2019-05-20T14:06:08.219Z,27
2019-05-20T14:11:10.672Z,25
2019-05-20T14:16:13.140Z,27
2019-05-20T14:21:15.587Z,26
2019-05-20T14:26:18.061Z,26
2019-05-20T14:31:20.541Z,8
2019-05-20T14:36:38.272Z,3
2019-05-20T14:41:25.440Z,3
2019-05-20T14:46:28.014Z,3
2019-05-20T14:51:30.327Z,2
2019-05-20T14:56:32.803Z,3
2019-05-20T15:01:35.273Z,4
2019-05-20T15:06:37.939Z,2
2019-05-20T15:11:40.156Z,2
2019-05-20T15:16:42.637Z,2
2019-05-20T15:21:45.516Z,3
2019-05-20T15:26:47.582Z,2
2019-05-20T15:31:50.023Z,1
2019-05-20T15:36:52.486Z,2
2019-05-20T15:41:54.971Z,2
2019-05-20T15:46:57.435Z,1
2019-05-20T15:51:59.940Z,2
2019-05-20T15:57:02.322Z,2
2019-05-20T16:02:04.799Z,2
2019-05-20T16:07:07.321Z,2
2019-05-20T16:12:09.659Z,2
2019-05-20T16:17:12.118Z,2
2019-05-20T16:22:14.605Z,2
2019-05-20T16:27:17.052Z,2
2019-05-20T16:32:19.572Z,2
2019-05-20T16:37:21.953Z,1
2019-05-20T16:42:24.437Z,2
2019-05-20T16:47:26.996Z,1
2019-05-20T16:52:30.585Z,2
2019-05-20T16:57:31.834Z,1
2019-05-20T17:02:34.264Z,1
2019-05-20T17:07:36.760Z,2
2019-05-20T17:12:39.174Z,1
2019-05-20T17:17:41.704Z,1
2019-05-20T17:22:44.172Z,1
2019-05-20T17:27:46.529Z,1
2019-05-20T17:32:49.039Z,2
2019-05-20T17:37:54.795Z,1
2019-05-20T17:42:53.900Z,1
2019-05-20T17:47:56.363Z,2
2019-05-20T17:52:58.958Z,2
2019-05-20T17:58:01.277Z,3
2019-05-20T18:03:03.802Z,1
2019-05-20T18:08:06.252Z,2
2019-05-20T18:13:08.654Z,2
2019-05-20T18:18:11.113Z,2
2019-05-20T18:23:13.606Z,3
2019-05-20T18:28:16.040Z,2
2019-05-20T18:33:18.501Z,2
2019-05-20T18:38:20.969Z,7
2019-05-20T18:43:23.402Z,5
2019-05-20T18:48:25.944Z,4
2019-05-20T18:53:28.344Z,3
2019-05-20T18:58:30.794Z,3
2019-05-20T19:03:33.969Z,3
2019-05-20T19:08:35.700Z,5
2019-05-20T19:13:38.156Z,3
2019-05-20T19:18:40.813Z,3
2019-05-20T19:23:43.062Z,3
2019-05-20T19:28:45.525Z,6
2019-05-20T19:33:47.990Z,5
2019-05-20T19:38:50.462Z,5
2019-05-20T19:43:52.938Z,4
2019-05-20T19:48:55.431Z,5
2019-05-20T19:53:57.833Z,6
2019-05-20T19:59:00.283Z,7
2019-05-20T20:04:02.896Z,8
2019-05-20T20:09:05.189Z,8
2019-05-20T20:14:07.797Z,8
2019-05-20T20:19:10.192Z,9
2019-05-20T20:24:12.565Z,8
2019-05-20T20:29:15.034Z,9
2019-05-20T20:34:17.487Z,9
2019-05-20T20:39:19.926Z,9
2019-05-20T20:44:23.076Z,11
2019-05-20T20:49:24.940Z,9
2019-05-20T20:54:27.359Z,9
2019-05-20T20:59:29.773Z,10
2019-05-20T21:04:32.235Z,12
2019-05-20T21:09:34.681Z,14
2019-05-20T21:14:37.143Z,15
2019-05-20T21:19:39.695Z,13
2019-05-20T21:24:42.039Z,15
2019-05-20T21:29:44.555Z,15
2019-05-20T21:34:46.979Z,23
2019-05-20T21:39:49.432Z,21
2019-05-20T21:44:51.928Z,22
2019-05-20T21:49:54.439Z,21
2019-05-20T21:54:56.815Z,17
2019-05-20T21:59:59.278Z,15
2019-05-20T22:05:01.839Z,17
2019-05-20T22:10:04.200Z,15
2019-05-20T22:15:06.709Z,20
2019-05-20T22:20:09.228Z,20
2019-05-20T22:25:11.725Z,24
2019-05-20T22:30:14.018Z,20
2019-05-20T22:35:16.465Z,24
2019-05-20T22:40:18.953Z,23
2019-05-20T22:45:21.385Z,20
2019-05-20T22:50:23.910Z,22
2019-05-20T22:55:26.283Z,22
2019-05-20T23:00:28.768Z,28
2019-05-20T23:05:31.237Z,33
2019-05-20T23:10:33.833Z,25
2019-05-20T23:15:36.137Z,25
2019-05-20T23:20:38.787Z,27
2019-05-20T23:25:41.064Z,27
2019-05-20T23:30:43.516Z,28
2019-05-20T23:35:45.978Z,32
2019-05-20T23:40:48.478Z,33
2019-05-20T23:45:50.920Z,29
2019-05-20T23:50:53.389Z,30
2019-05-20T23:55:55.826Z,33
